Terminal Aerodrome Forecast
Issued by NWS Wichita, KS

Home | Current Version | Previous Version | Graphics & Text | Print | Product List | Glossary On
Versions: 1 2 3 4 5 6 7 8 9 10 11 12 13 14 15 16
000
FTUS43 KICT 231500 AAA
TAFICT
TAF AMD
KICT 231510Z 2315/2412 03015G22KT P6SM SCT015
      TEMPO 2315/2317 BKN015
     FM240000 10005KT P6SM SCT250
     FM241000 13005KT 6SM BR SCT250=

USA.gov is the U.S. government's official web portal to all federal, state and local government web resources and services.